createdAt,value
2023-02-25T00:01:22.985Z,6.07
2023-02-25T00:06:24.132Z,4.20
2023-02-25T00:08:54.337Z,3.70
2023-02-25T00:11:25.694Z,4.88
2023-02-25T00:13:55.623Z,4.65
2023-02-25T00:16:26.108Z,3.35
2023-02-25T00:18:59.063Z,4.80
2023-02-25T00:21:29.732Z,4.38
2023-02-25T00:24:14.025Z,4.40
2023-02-25T00:26:45.342Z,5.15
2023-02-25T00:29:13.602Z,4.85
2023-02-25T00:31:42.120Z,3.85
2023-02-25T00:34:10.680Z,4.70
2023-02-25T00:36:39.840Z,4.60
2023-02-25T00:39:09.228Z,4.10
2023-02-25T00:41:37.669Z,3.33
2023-02-25T00:44:08.373Z,4.45
2023-02-25T00:46:36.963Z,3.83
2023-02-25T00:49:05.603Z,4.20
2023-02-25T00:51:34.832Z,6.00
2023-02-25T00:54:03.064Z,4.45
2023-02-25T00:56:31.896Z,4.00
2023-02-25T00:59:02.136Z,4.22
2023-02-25T01:01:34.274Z,4.30
2023-02-25T01:04:02.583Z,4.18
2023-02-25T01:06:33.040Z,4.20
2023-02-25T01:09:02.012Z,4.57
2023-02-25T01:11:31.789Z,4.85
2023-02-25T01:14:01.809Z,4.28
2023-02-25T01:16:33.595Z,4.53
2023-02-25T01:19:07.105Z,4.05
2023-02-25T01:21:37.361Z,5.75
2023-02-25T01:24:08.192Z,4.20
2023-02-25T01:26:39.531Z,4.30
2023-02-25T01:29:09.020Z,5.47
2023-02-25T01:31:38.989Z,4.10
2023-02-25T01:34:08.946Z,5.07
2023-02-25T01:36:37.189Z,4.05
2023-02-25T01:39:06.327Z,4.47
2023-02-25T01:41:36.911Z,6.47
2023-02-25T01:44:16.513Z,5.28
2023-02-25T01:46:47.726Z,4.97
2023-02-25T01:49:19.286Z,4.53
2023-02-25T01:51:49.915Z,4.40
2023-02-25T01:54:20.544Z,4.32
2023-02-25T01:56:52.555Z,4.63
2023-02-25T01:59:24.373Z,5.05
2023-02-25T02:01:53.980Z,4.28
2023-02-25T02:04:24.417Z,4.20
2023-02-25T02:06:53.910Z,4.00
2023-02-25T02:09:25.334Z,4.30
2023-02-25T02:11:53.650Z,4.47
2023-02-25T02:14:24.881Z,4.70
2023-02-25T02:19:58.286Z,5.03
2023-02-25T02:22:35.405Z,4.68
2023-02-25T02:25:31.688Z,4.93
2023-02-25T02:28:25.101Z,4.75
2023-02-25T02:31:23.450Z,4.18
2023-02-25T02:33:59.611Z,5.35
2023-02-25T02:36:37.294Z,4.35
2023-02-25T02:39:12.983Z,5.05
2023-02-25T02:41:48.386Z,4.97
2023-02-25T02:44:21.127Z,4.88
2023-02-25T02:46:52.899Z,3.80
2023-02-25T02:49:28.108Z,4.82
2023-02-25T02:52:01.311Z,5.65
2023-02-25T02:54:36.333Z,4.78
2023-02-25T02:57:06.794Z,5.25
2023-02-25T02:59:43.215Z,5.60
2023-02-25T03:02:17.077Z,5.78
2023-02-25T03:04:50.200Z,4.68
2023-02-25T03:07:19.725Z,4.93
2023-02-25T03:09:50.923Z,4.80
2023-02-25T03:12:19.529Z,4.25
2023-02-25T03:14:47.841Z,4.78
2023-02-25T03:17:20.413Z,4.82
2023-02-25T03:19:54.715Z,5.35
2023-02-25T03:22:27.991Z,4.55
2023-02-25T03:25:02.189Z,4.80
2023-02-25T03:27:35.395Z,5.88
2023-02-25T03:30:12.627Z,5.28
2023-02-25T03:32:44.316Z,5.22
2023-02-25T03:35:16.162Z,5.70
2023-02-25T03:37:47.523Z,5.47
2023-02-25T03:40:17.436Z,5.07
2023-02-25T03:42:50.380Z,6.05
2023-02-25T03:45:19.148Z,5.63
2023-02-25T03:47:47.655Z,4.75
2023-02-25T03:50:22.216Z,5.13
2023-02-25T03:52:50.602Z,6.15
2023-02-25T03:55:19.690Z,5.70
2023-02-25T03:57:51.009Z,6.68
2023-02-25T04:00:22.929Z,5.47
2023-02-25T04:02:52.229Z,5.43
2023-02-25T04:05:24.990Z,4.82
2023-02-25T04:07:53.202Z,4.70
2023-02-25T04:10:21.919Z,6.40
2023-02-25T04:12:51.885Z,5.70
2023-02-25T04:15:21.173Z,5.20
2023-02-25T04:17:49.468Z,5.47
2023-02-25T04:20:20.225Z,4.75
2023-02-25T04:22:50.756Z,5.22
2023-02-25T04:25:19.051Z,6.15
2023-02-25T04:27:47.173Z,4.50
2023-02-25T04:30:16.507Z,5.53
2023-02-25T04:32:45.229Z,5.00
2023-02-25T04:35:13.833Z,4.60
2023-02-25T04:37:42.816Z,4.32
2023-02-25T04:40:16.772Z,5.07
2023-02-25T04:42:45.093Z,5.30
2023-02-25T04:45:15.320Z,6.70
2023-02-25T04:47:43.780Z,5.28
2023-02-25T04:50:13.749Z,5.25
2023-02-25T04:52:42.004Z,4.90
2023-02-25T04:55:10.980Z,4.07
2023-02-25T04:57:42.493Z,5.88
2023-02-25T05:00:19.071Z,5.10
2023-02-25T05:02:48.448Z,4.88
2023-02-25T05:05:17.549Z,4.32
2023-02-25T05:07:45.863Z,4.38
2023-02-25T05:10:15.664Z,4.60
2023-02-25T05:12:45.274Z,4.30
2023-02-25T05:15:13.746Z,4.45
2023-02-25T05:17:41.952Z,3.92
2023-02-25T05:20:13.244Z,4.13
2023-02-25T05:22:42.282Z,4.40
2023-02-25T05:25:11.952Z,4.32
2023-02-25T05:27:40.204Z,5.15
2023-02-25T05:30:11.344Z,4.68
2023-02-25T05:35:10.130Z,4.60
2023-02-25T05:37:38.883Z,4.32
2023-02-25T05:40:09.439Z,3.53
2023-02-25T05:42:38.558Z,4.95
2023-02-25T05:45:09.582Z,4.00
2023-02-25T05:47:37.784Z,3.92
2023-02-25T05:50:06.827Z,5.70
2023-02-25T05:52:35.063Z,3.88
2023-02-25T05:55:03.365Z,4.93
2023-02-25T05:57:31.814Z,3.67
2023-02-25T06:00:01.616Z,6.20
2023-02-25T06:02:33.702Z,4.88
2023-02-25T06:05:02.632Z,4.40
2023-02-25T06:07:31.856Z,3.75
2023-02-25T06:10:01.942Z,4.45
2023-02-25T06:12:31.743Z,5.78
2023-02-25T06:15:00.303Z,4.72
2023-02-25T06:17:28.661Z,4.32
2023-02-25T06:19:58.303Z,4.95
2023-02-25T06:22:26.524Z,4.35
2023-02-25T06:24:54.672Z,5.70
2023-02-25T06:27:23.412Z,3.45
2023-02-25T06:29:51.629Z,3.78
2023-02-25T06:32:20.704Z,3.08
2023-02-25T06:34:49.031Z,3.70
2023-02-25T06:37:18.652Z,4.13
2023-02-25T06:39:46.940Z,5.32
2023-02-25T06:42:15.199Z,3.88
2023-02-25T06:44:43.349Z,4.20
2023-02-25T06:47:11.566Z,4.25
2023-02-25T06:49:40.164Z,3.80
2023-02-25T06:52:08.576Z,3.08
2023-02-25T06:54:38.331Z,4.45
2023-02-25T06:57:06.608Z,4.65
2023-02-25T06:59:35.764Z,4.25
2023-02-25T07:02:04.349Z,5.10
2023-02-25T07:04:32.742Z,3.33
2023-02-25T07:07:01.010Z,4.03
2023-02-25T07:09:29.252Z,3.47
2023-02-25T07:11:59.379Z,4.40
2023-02-25T07:14:27.742Z,4.47
2023-02-25T07:16:55.915Z,3.90
2023-02-25T07:19:24.168Z,3.63
2023-02-25T07:21:52.309Z,4.20
2023-02-25T07:24:20.430Z,4.28
2023-02-25T07:26:48.681Z,4.95
2023-02-25T07:29:18.281Z,5.10
2023-02-25T07:31:46.607Z,5.75
2023-02-25T07:34:15.238Z,4.97
2023-02-25T07:36:43.411Z,4.68
2023-02-25T07:39:13.354Z,3.45
2023-02-25T07:41:41.863Z,4.53
2023-02-25T07:44:10.376Z,4.63
2023-02-25T07:46:41.101Z,3.75
2023-02-25T07:49:09.297Z,4.03
2023-02-25T07:51:37.463Z,4.82
2023-02-25T07:54:05.990Z,5.32
2023-02-25T07:56:34.333Z,4.28
2023-02-25T07:59:02.550Z,3.83
2023-02-25T08:01:33.196Z,5.10
2023-02-25T08:04:05.821Z,4.30
2023-02-25T08:06:37.607Z,4.60
2023-02-25T08:09:06.783Z,4.95
2023-02-25T08:11:35.049Z,4.28
2023-02-25T08:14:03.298Z,4.93
2023-02-25T08:16:32.452Z,5.70
2023-02-25T08:19:03.930Z,4.78
2023-02-25T08:21:33.502Z,4.13
2023-02-25T08:24:01.748Z,4.28
2023-02-25T08:26:30.239Z,4.78
2023-02-25T08:28:58.751Z,4.28
2023-02-25T08:31:27.621Z,4.72
2023-02-25T08:33:57.302Z,4.28
2023-02-25T08:36:29.071Z,4.30
2023-02-25T08:38:59.543Z,5.38
2023-02-25T08:41:29.158Z,5.90
2023-02-25T08:44:00.442Z,4.55
2023-02-25T08:46:30.746Z,4.18
2023-02-25T08:48:59.365Z,4.78
2023-02-25T08:51:34.278Z,5.18
2023-02-25T08:54:04.652Z,5.47
2023-02-25T08:56:33.401Z,4.30
2023-02-25T08:59:01.811Z,4.38
2023-02-25T09:01:44.527Z,4.32
2023-02-25T09:04:13.696Z,4.18
2023-02-25T09:06:43.684Z,5.18
2023-02-25T09:09:13.386Z,5.00
2023-02-25T09:11:41.810Z,4.38
2023-02-25T09:14:10.782Z,4.75
2023-02-25T09:16:39.426Z,4.75
2023-02-25T09:19:08.182Z,4.47
2023-02-25T09:21:37.736Z,4.60
2023-02-25T09:24:08.245Z,4.53
2023-02-25T09:26:36.489Z,4.50
2023-02-25T09:29:06.751Z,4.32
2023-02-25T09:31:36.993Z,5.37
2023-02-25T09:34:07.994Z,4.40
2023-02-25T09:36:37.169Z,3.47
2023-02-25T09:39:10.431Z,3.90
2023-02-25T09:41:45.978Z,4.38
2023-02-25T09:44:16.744Z,4.50
2023-02-25T09:46:50.580Z,4.95
2023-02-25T09:49:27.040Z,4.15
2023-02-25T09:52:00.757Z,4.15
2023-02-25T09:54:36.044Z,4.25
2023-02-25T09:57:05.723Z,5.68
2023-02-25T09:59:34.472Z,4.72
2023-02-25T10:02:21.863Z,4.25
2023-02-25T10:05:04.268Z,4.18
2023-02-25T10:07:36.454Z,4.55
2023-02-25T10:10:14.450Z,4.78
2023-02-25T10:12:51.515Z,4.85
2023-02-25T10:15:32.746Z,4.07
2023-02-25T10:20:53.364Z,3.83
2023-02-25T10:23:37.773Z,4.43
2023-02-25T10:26:18.011Z,4.28
2023-02-25T10:28:48.619Z,3.55
2023-02-25T10:31:19.541Z,4.25
2023-02-25T10:33:50.075Z,4.97
2023-02-25T10:36:20.762Z,5.10
2023-02-25T10:38:51.342Z,4.53
2023-02-25T10:41:23.031Z,4.35
2023-02-25T10:43:53.199Z,4.10
2023-02-25T10:46:27.456Z,4.38
2023-02-25T10:48:59.116Z,3.45
2023-02-25T10:51:29.586Z,3.92
2023-02-25T10:54:05.057Z,5.07
2023-02-25T10:56:41.691Z,5.00
2023-02-25T10:59:28.482Z,3.95
2023-02-25T11:01:59.921Z,3.75
2023-02-25T11:04:33.371Z,3.70
2023-02-25T11:07:01.741Z,4.50
2023-02-25T11:09:35.413Z,3.88
2023-02-25T11:12:13.308Z,4.85
2023-02-25T11:14:42.529Z,3.65
2023-02-25T11:17:16.184Z,3.45
2023-02-25T11:19:47.085Z,4.38
2023-02-25T11:22:19.701Z,4.20
2023-02-25T11:24:57.453Z,3.88
2023-02-25T11:27:38.996Z,3.92
2023-02-25T11:30:10.256Z,3.58
2023-02-25T11:32:44.319Z,4.03
2023-02-25T11:35:20.176Z,5.00
2023-02-25T11:37:49.506Z,3.75
2023-02-25T11:40:28.837Z,3.95
2023-02-25T11:43:18.185Z,4.15
2023-02-25T11:45:56.497Z,3.80
2023-02-25T11:48:29.042Z,4.57
2023-02-25T11:51:05.157Z,3.50
2023-02-25T11:53:47.664Z,3.85
2023-02-25T11:56:25.848Z,4.65
2023-02-25T11:59:12.784Z,3.97
2023-02-25T12:01:53.285Z,4.88
2023-02-25T12:04:44.222Z,3.63
2023-02-25T12:07:40.297Z,4.32
2023-02-25T12:10:46.806Z,3.67
2023-02-25T12:13:37.055Z,5.22
2023-02-25T12:16:52.555Z,3.17
2023-02-25T12:19:59.492Z,4.20
2023-02-25T12:22:59.710Z,4.32
2023-02-25T12:25:39.909Z,4.28
2023-02-25T12:28:27.891Z,3.72
2023-02-25T12:31:22.669Z,3.75
2023-02-25T12:34:15.550Z,3.65
2023-02-25T12:36:56.912Z,4.40
2023-02-25T12:39:44.613Z,3.42
2023-02-25T12:42:38.132Z,4.90
2023-02-25T12:45:39.520Z,4.05
2023-02-25T12:48:44.635Z,3.65
2023-02-25T12:51:48.149Z,3.17
2023-02-25T12:54:54.200Z,5.60
2023-02-25T12:57:39.148Z,4.22
2023-02-25T13:00:38.784Z,4.05
2023-02-25T13:03:21.321Z,3.90
2023-02-25T13:06:08.047Z,4.00
2023-02-25T13:08:54.825Z,4.22
2023-02-25T13:11:34.557Z,3.38
2023-02-25T13:14:30.059Z,3.92
2023-02-25T13:17:13.757Z,4.32
2023-02-25T13:20:01.630Z,3.65
2023-02-25T13:22:50.825Z,6.43
2023-02-25T13:25:26.744Z,3.45
2023-02-25T13:28:23.022Z,3.35
2023-02-25T13:30:58.291Z,3.63
2023-02-25T13:33:52.832Z,7.43
2023-02-25T13:36:45.728Z,4.70
2023-02-25T13:39:41.695Z,5.20
2023-02-25T13:42:32.066Z,5.03
2023-02-25T13:45:30.836Z,4.23
2023-02-25T13:48:11.370Z,3.97
2023-02-25T13:51:04.936Z,3.63
2023-02-25T13:54:03.362Z,4.18
2023-02-25T13:56:56.548Z,3.00
2023-02-25T13:59:44.608Z,3.33
2023-02-25T14:02:31.882Z,3.38
2023-02-25T14:05:23.930Z,3.78
2023-02-25T14:08:15.212Z,3.53
2023-02-25T14:10:51.127Z,3.42
2023-02-25T14:13:42.062Z,5.10
2023-02-25T14:16:24.072Z,3.63
2023-02-25T14:19:10.186Z,3.88
2023-02-25T14:22:13.051Z,4.43
2023-02-25T14:24:46.986Z,3.47
2023-02-25T14:27:25.754Z,3.28
2023-02-25T14:30:11.066Z,4.53
2023-02-25T14:32:56.067Z,4.57
2023-02-25T14:35:56.039Z,4.28
2023-02-25T14:38:32.204Z,4.22
2023-02-25T14:41:13.413Z,4.05
2023-02-25T14:46:23.134Z,3.75
2023-02-25T14:49:01.105Z,3.60
2023-02-25T14:52:09.145Z,4.18
2023-02-25T14:55:16.009Z,3.80
2023-02-25T14:58:21.970Z,3.88
2023-02-25T15:01:10.907Z,4.38
2023-02-25T15:04:17.398Z,4.85
2023-02-25T15:07:01.117Z,7.10
2023-02-25T15:09:49.409Z,10.65
2023-02-25T15:12:28.626Z,12.77
2023-02-25T15:15:25.174Z,18.77
2023-02-25T15:18:42.245Z,17.83
2023-02-25T15:21:41.174Z,17.92
2023-02-25T15:24:12.760Z,20.40
2023-02-25T15:26:44.566Z,24.85
2023-02-25T15:29:58.104Z,24.05
2023-02-25T15:32:30.038Z,22.55
2023-02-25T15:35:00.880Z,17.50
2023-02-25T15:37:36.591Z,24.02
2023-02-25T15:40:34.434Z,17.80
2023-02-25T15:43:03.454Z,19.23
2023-02-25T15:45:42.736Z,17.33
2023-02-25T15:48:39.125Z,17.35
2023-02-25T15:51:13.041Z,19.75
2023-02-25T15:53:46.117Z,13.00
2023-02-25T15:56:51.739Z,18.65
2023-02-25T15:59:43.396Z,17.85
2023-02-25T16:02:34.807Z,15.85
2023-02-25T16:05:06.255Z,14.55
2023-02-25T16:07:37.484Z,18.13
2023-02-25T16:12:42.873Z,12.85
2023-02-25T16:15:20.468Z,14.10
2023-02-25T16:17:49.457Z,17.10
2023-02-25T16:20:24.594Z,15.57
2023-02-25T16:22:57.630Z,13.02
2023-02-25T16:25:38.119Z,15.98
2023-02-25T16:28:15.463Z,17.53
2023-02-25T16:30:51.178Z,17.30
2023-02-25T16:33:26.375Z,13.77
2023-02-25T16:36:07.394Z,16.02
2023-02-25T16:38:42.738Z,13.88
2023-02-25T16:41:14.187Z,18.23
2023-02-25T16:43:43.875Z,15.57
2023-02-25T16:46:14.644Z,13.13
2023-02-25T16:48:50.313Z,14.30
2023-02-25T16:51:25.851Z,14.23
2023-02-25T16:53:58.012Z,12.00
2023-02-25T16:56:31.366Z,11.63
2023-02-25T16:59:02.448Z,13.10
2023-02-25T17:04:13.110Z,14.75
2023-02-25T17:06:41.479Z,11.57
2023-02-25T17:09:23.918Z,11.65
2023-02-25T17:11:56.844Z,9.43
2023-02-25T17:14:25.939Z,11.75
2023-02-25T17:16:54.391Z,11.23
2023-02-25T17:19:24.452Z,11.95
2023-02-25T17:21:55.173Z,9.82
2023-02-25T17:24:28.449Z,9.50
2023-02-25T17:26:58.601Z,8.30
2023-02-25T17:29:35.954Z,11.13
2023-02-25T17:32:18.716Z,9.27
2023-02-25T17:34:48.616Z,8.25
2023-02-25T17:37:18.828Z,8.35
2023-02-25T17:39:47.998Z,9.97
2023-02-25T17:42:33.698Z,12.40
2023-02-25T17:45:02.969Z,10.18
2023-02-25T17:47:33.709Z,7.82
2023-02-25T17:50:21.185Z,11.23
2023-02-25T17:52:50.137Z,10.38
2023-02-25T17:55:25.556Z,8.60
2023-02-25T17:57:59.198Z,8.23
2023-02-25T18:00:29.625Z,10.55
2023-02-25T18:03:15.504Z,12.45
2023-02-25T18:05:51.306Z,8.25
2023-02-25T18:08:22.205Z,9.55
2023-02-25T18:10:54.949Z,7.82
2023-02-25T18:13:29.017Z,9.13
2023-02-25T18:16:38.133Z,8.32
2023-02-25T18:19:28.827Z,7.40
2023-02-25T18:21:57.784Z,10.43
2023-02-25T18:24:33.106Z,8.45
2023-02-25T18:27:20.350Z,8.25
2023-02-25T18:29:49.916Z,9.20
2023-02-25T18:32:18.355Z,7.90
2023-02-25T18:34:46.682Z,8.85
2023-02-25T18:37:17.464Z,7.07
2023-02-25T18:39:47.400Z,7.22
2023-02-25T18:42:17.563Z,7.93
2023-02-25T18:44:47.308Z,6.93
2023-02-25T18:47:18.169Z,7.43
2023-02-25T18:49:46.836Z,8.20
2023-02-25T18:52:22.232Z,9.50
2023-02-25T18:54:50.777Z,5.75
2023-02-25T18:57:24.355Z,8.98
2023-02-25T18:59:53.017Z,7.65
2023-02-25T19:02:29.902Z,9.57
2023-02-25T19:04:58.459Z,7.43
2023-02-25T19:07:27.798Z,6.90
2023-02-25T19:09:56.968Z,8.23
2023-02-25T19:12:27.221Z,7.30
2023-02-25T19:14:59.692Z,12.63
2023-02-25T19:17:30.181Z,7.00
2023-02-25T19:19:59.029Z,8.63
2023-02-25T19:22:27.387Z,8.13
2023-02-25T19:24:55.567Z,8.57
2023-02-25T19:27:25.991Z,6.50
2023-02-25T19:29:56.036Z,6.60
2023-02-25T19:32:25.395Z,6.35
2023-02-25T19:34:55.083Z,6.63
2023-02-25T19:37:23.268Z,7.55
2023-02-25T19:39:51.430Z,7.63
2023-02-25T19:42:19.816Z,5.53
2023-02-25T19:44:48.146Z,8.13
2023-02-25T19:47:16.401Z,7.55
2023-02-25T19:49:44.983Z,5.85
2023-02-25T19:52:15.279Z,9.93
2023-02-25T19:54:43.630Z,8.70
2023-02-25T19:57:12.619Z,8.82
2023-02-25T19:59:41.960Z,7.50
2023-02-25T20:02:13.454Z,6.85
2023-02-25T20:04:42.276Z,6.60
2023-02-25T20:07:10.970Z,5.68
2023-02-25T20:09:40.721Z,7.07
2023-02-25T20:12:09.721Z,5.80
2023-02-25T20:14:37.991Z,7.30
2023-02-25T20:17:06.297Z,7.32
2023-02-25T20:19:34.597Z,6.35
2023-02-25T20:22:05.079Z,5.82
2023-02-25T20:24:34.383Z,6.25
2023-02-25T20:27:04.091Z,6.00
2023-02-25T20:29:32.434Z,8.63
2023-02-25T20:32:01.004Z,5.07
2023-02-25T20:34:29.755Z,5.20
2023-02-25T20:37:01.083Z,5.82
2023-02-25T20:39:49.362Z,6.63
2023-02-25T20:42:21.285Z,7.70
2023-02-25T20:44:51.801Z,8.35
2023-02-25T20:47:22.494Z,5.65
2023-02-25T20:49:51.837Z,6.60
2023-02-25T20:52:20.422Z,8.68
2023-02-25T20:54:49.952Z,6.47
2023-02-25T20:57:21.781Z,7.00
2023-02-25T20:59:50.818Z,6.15
2023-02-25T21:02:19.601Z,4.82
2023-02-25T21:04:47.856Z,5.15
2023-02-25T21:07:16.475Z,5.82
2023-02-25T21:09:44.940Z,6.82
2023-02-25T21:12:13.197Z,7.93
2023-02-25T21:14:42.972Z,7.05
2023-02-25T21:17:13.687Z,6.95
2023-02-25T21:19:42.333Z,6.03
2023-02-25T21:22:10.604Z,7.85
2023-02-25T21:24:38.740Z,6.97
2023-02-25T21:27:07.193Z,6.95
2023-02-25T21:29:35.335Z,7.85
2023-02-25T21:32:05.458Z,5.63
2023-02-25T21:34:33.634Z,5.70
2023-02-25T21:37:01.831Z,7.50
2023-02-25T21:39:30.144Z,5.93
2023-02-25T21:41:58.412Z,6.40
2023-02-25T21:44:26.682Z,6.85
2023-02-25T21:46:55.640Z,6.28
2023-02-25T21:49:27.085Z,6.57
2023-02-25T21:51:55.281Z,6.97
2023-02-25T21:54:23.406Z,6.25
2023-02-25T21:56:51.618Z,7.25
2023-02-25T21:59:20.007Z,6.30
2023-02-25T22:01:48.301Z,7.75
2023-02-25T22:04:16.701Z,6.82
2023-02-25T22:06:48.841Z,6.38
2023-02-25T22:09:18.022Z,7.00
2023-02-25T22:11:46.183Z,5.78
2023-02-25T22:14:14.405Z,6.78
2023-02-25T22:16:42.576Z,7.13
2023-02-25T22:19:10.953Z,6.35
2023-02-25T22:21:39.115Z,7.03
2023-02-25T22:24:08.748Z,5.97
2023-02-25T22:26:37.835Z,5.35
2023-02-25T22:29:09.083Z,6.53
2023-02-25T22:31:37.871Z,6.57
2023-02-25T22:34:07.128Z,5.97
2023-02-25T22:36:35.603Z,5.82
2023-02-25T22:39:06.278Z,6.95
2023-02-25T22:41:36.184Z,6.72
2023-02-25T22:44:05.670Z,5.88
2023-02-25T22:46:36.204Z,6.78
2023-02-25T22:49:05.732Z,6.85
2023-02-25T22:51:35.479Z,4.80
2023-02-25T22:54:05.314Z,5.80
2023-02-25T22:56:34.993Z,6.90
2023-02-25T22:59:03.232Z,6.22
2023-02-25T23:01:31.570Z,8.13
2023-02-25T23:04:00.578Z,6.18
2023-02-25T23:06:42.909Z,7.93
2023-02-25T23:09:12.428Z,6.25
2023-02-25T23:11:43.515Z,6.15
2023-02-25T23:16:42.245Z,6.20
2023-02-25T23:19:13.062Z,5.25
2023-02-25T23:21:41.310Z,5.90
2023-02-25T23:24:13.944Z,6.55
2023-02-25T23:26:44.872Z,6.05
2023-02-25T23:29:13.764Z,5.63
2023-02-25T23:31:44.987Z,5.72
2023-02-25T23:34:15.118Z,6.05
2023-02-25T23:36:44.976Z,5.43
2023-02-25T23:39:14.847Z,6.95
2023-02-25T23:41:44.753Z,6.28
2023-02-25T23:44:14.783Z,6.13
2023-02-25T23:46:45.157Z,5.82
2023-02-25T23:49:16.647Z,6.20
2023-02-25T23:51:46.876Z,5.60
2023-02-25T23:54:18.183Z,6.20
2023-02-25T23:56:48.126Z,5.47
2023-02-25T23:59:16.628Z,5.85
